Time;durP1;ratioP1;P1;durP2;ratioP2;P2;SDS_P1;SDS_P2;PMS_P1;PMS_P2;Temp;Humidity;BMP_temperature;BMP_pressure;BME280_temperature;BME280_humidity;BME280_pressure;Samples;Min_cycle;Max_cycle;Signal;HPM_P1;HPM_P2
2021/05/14 00:02:03;;;;;;;7.60;2.30;;;15.30;80.60;;;;;;5028125;28;20682;-52
2021/05/14 00:04:30;;;;;;;4.60;1.50;;;15.30;80.40;;;;;;5030623;28;20630;-51
2021/05/14 00:06:57;;;;;;;1.70;1.60;;;15.30;80.10;;;;;;5033216;28;20681;-51
2021/05/14 00:09:23;;;;;;;2.53;2.00;;;15.30;80.20;;;;;;5033520;28;20631;-52
2021/05/14 00:11:50;;;;;;;1.90;1.70;;;15.30;80.30;;;;;;5030122;28;21214;-52
2021/05/14 00:14:17;;;;;;;1.73;1.63;;;15.30;80.50;;;;;;5029746;28;20669;-52
2021/05/14 00:16:44;;;;;;;1.40;1.30;;;15.30;80.70;;;;;;5033155;28;21246;-52
2021/05/14 00:19:11;;;;;;;2.27;1.80;;;15.30;80.30;;;;;;5032683;28;20630;-52
2021/05/14 00:21:38;;;;;;;1.87;1.77;;;15.30;79.50;;;;;;5033594;28;21004;-52
2021/05/14 00:24:06;;;;;;;1.53;1.33;;;15.20;79.40;;;;;;5033241;28;21178;-52
2021/05/14 00:26:33;;;;;;;2.50;1.77;;;15.20;79.70;;;;;;5033801;28;20697;-52
2021/05/14 00:28:59;;;;;;;1.37;1.27;;;15.10;79.90;;;;;;5032726;28;21270;-52
2021/05/14 00:31:26;;;;;;;2.23;1.63;;;15.00;80.20;;;;;;5019502;28;21211;-51
2021/05/14 00:33:54;;;;;;;1.70;1.53;;;15.00;80.60;;;;;;5031496;28;20682;-51
2021/05/14 00:36:20;;;;;;;2.87;1.77;;;15.00;80.60;;;;;;5031661;28;20724;-51
2021/05/14 00:38:47;;;;;;;2.03;1.83;;;15.00;80.80;;;;;;5016279;28;20667;-52
2021/05/14 00:41:14;;;;;;;2.90;2.10;;;15.00;80.70;;;;;;5021653;28;20631;-51
2021/05/14 00:43:41;;;;;;;1.57;1.27;;;15.00;80.60;;;;;;5016263;28;20628;-51
2021/05/14 00:46:07;;;;;;;2.67;2.03;;;15.00;80.60;;;;;;5024166;28;21439;-51
2021/05/14 00:48:38;;;;;;;1.97;1.77;;;15.00;80.60;;;;;;5032285;28;20685;-52
2021/05/14 00:51:05;;;;;;;1.60;1.50;;;14.90;80.40;;;;;;5032964;28;20675;-52
2021/05/14 00:53:32;;;;;;;1.60;1.50;;;14.90;80.60;;;;;;5032223;28;21313;-51
2021/05/14 00:55:59;;;;;;;1.33;1.23;;;14.90;80.60;;;;;;5029068;28;20652;-50
2021/05/14 00:58:26;;;;;;;2.20;2.00;;;14.90;80.70;;;;;;5026194;28;20685;-52
2021/05/14 01:00:53;;;;;;;1.80;1.70;;;14.90;80.90;;;;;;5032557;28;21171;-51
2021/05/14 01:03:20;;;;;;;1.60;1.50;;;14.80;81.20;;;;;;5032345;28;20677;-51
2021/05/14 01:05:47;;;;;;;4.60;2.20;;;14.80;81.60;;;;;;5032278;28;20716;-51
2021/05/14 01:08:14;;;;;;;1.90;1.70;;;14.70;82.00;;;;;;5031720;28;20623;-50
2021/05/14 01:10:41;;;;;;;2.73;1.80;;;14.70;82.10;;;;;;5022702;28;20627;-51
2021/05/14 01:13:08;;;;;;;7.80;1.30;;;14.80;82.30;;;;;;5031852;28;20659;-51
2021/05/14 01:15:35;;;;;;;1.90;1.70;;;14.80;82.30;;;;;;5031988;28;21316;-52
2021/05/14 01:18:02;;;;;;;3.20;1.33;;;14.80;82.30;;;;;;5031996;28;20681;-52
2021/05/14 01:20:30;;;;;;;2.70;1.60;;;14.70;82.30;;;;;;5032616;28;20662;-52
2021/05/14 01:22:57;;;;;;;2.00;1.80;;;14.70;82.30;;;;;;5032616;28;20979;-52
2021/05/14 01:25:24;;;;;;;1.53;1.40;;;14.70;82.40;;;;;;5014434;28;21290;-52
2021/05/14 01:27:52;;;;;;;4.00;1.97;;;14.60;82.80;;;;;;5019403;28;21365;-52
2021/05/14 01:30:20;;;;;;;1.50;1.40;;;14.50;83.00;;;;;;5031866;28;21037;-52
2021/05/14 01:32:47;;;;;;;1.93;1.73;;;14.50;83.40;;;;;;5030148;28;20682;-51
2021/05/14 01:35:14;;;;;;;3.80;1.57;;;14.50;83.80;;;;;;5032131;28;20670;-51
2021/05/14 01:37:41;;;;;;;1.47;1.37;;;14.50;84.00;;;;;;5031060;28;20634;-52
2021/05/14 01:40:09;;;;;;;2.97;1.90;;;14.50;84.30;;;;;;5031826;28;20662;-52
2021/05/14 01:42:35;;;;;;;2.50;1.70;;;14.40;84.50;;;;;;5023169;28;20686;-51
2021/05/14 01:45:02;;;;;;;1.87;1.50;;;14.50;84.40;;;;;;5031191;28;20712;-51
2021/05/14 01:47:29;;;;;;;2.77;1.83;;;14.40;84.40;;;;;;5030273;28;20631;-51
2021/05/14 01:49:56;;;;;;;2.03;1.83;;;14.40;84.50;;;;;;5031523;28;20635;-49
2021/05/14 01:52:22;;;;;;;2.23;2.03;;;14.40;84.60;;;;;;5024773;28;20643;-49
2021/05/14 01:54:50;;;;;;;2.00;1.90;;;14.30;84.90;;;;;;5031318;28;21412;-50
2021/05/14 01:57:17;;;;;;;2.90;1.63;;;14.30;84.90;;;;;;5031269;28;21026;-49
2021/05/14 01:59:43;;;;;;;1.83;1.73;;;14.30;84.90;;;;;;5031459;28;20635;-49
2021/05/14 02:02:10;;;;;;;2.00;1.73;;;14.30;84.90;;;;;;5031243;28;20653;-50
2021/05/14 02:04:37;;;;;;;2.17;1.97;;;14.30;85.00;;;;;;5031038;28;20627;-49
2021/05/14 02:07:04;;;;;;;2.37;2.17;;;14.20;85.00;;;;;;5011228;28;20655;-50
2021/05/14 02:09:31;;;;;;;2.33;2.17;;;14.20;84.90;;;;;;5029065;28;20665;-50
2021/05/14 02:11:58;;;;;;;1.83;1.63;;;14.10;85.20;;;;;;5031662;28;20638;-50
2021/05/14 02:14:25;;;;;;;1.70;1.60;;;14.00;85.60;;;;;;5031488;28;20650;-50
2021/05/14 02:16:52;;;;;;;1.80;1.70;;;14.00;85.60;;;;;;5029205;28;21159;-51
2021/05/14 02:19:18;;;;;;;2.27;1.30;;;14.00;85.50;;;;;;5022224;28;20623;-50
2021/05/14 02:21:45;;;;;;;2.00;1.73;;;14.00;85.70;;;;;;5011877;28;20761;-50
2021/05/14 02:24:12;;;;;;;1.70;1.60;;;14.00;85.70;;;;;;5026374;28;20634;-50
2021/05/14 02:26:39;;;;;;;2.73;1.57;;;14.00;85.40;;;;;;5031514;28;20655;-50
2021/05/14 02:29:06;;;;;;;3.77;1.73;;;13.90;85.80;;;;;;5030967;28;20627;-50
2021/05/14 02:31:33;;;;;;;2.80;1.60;;;13.90;86.10;;;;;;5031125;28;20657;-51
2021/05/14 02:34:00;;;;;;;1.60;1.47;;;13.70;86.30;;;;;;5018515;28;20663;-50
2021/05/14 02:36:27;;;;;;;1.90;1.43;;;13.80;86.60;;;;;;5029858;28;20729;-51
2021/05/14 02:38:53;;;;;;;3.20;2.30;;;13.80;86.80;;;;;;5029484;28;20655;-51
2021/05/14 02:41:20;;;;;;;3.03;1.63;;;13.80;87.00;;;;;;5030979;28;20681;-51
2021/05/14 02:43:47;;;;;;;1.80;1.70;;;13.80;87.00;;;;;;5030522;28;21058;-50
2021/05/14 02:46:14;;;;;;;2.10;1.90;;;13.80;87.10;;;;;;5030516;28;21012;-50
2021/05/14 02:48:41;;;;;;;1.77;1.67;;;13.80;86.90;;;;;;5030071;28;20713;-50
2021/05/14 02:51:08;;;;;;;1.90;1.70;;;13.70;87.60;;;;;;5030927;28;21257;-51
2021/05/14 02:53:34;;;;;;;1.93;1.73;;;13.60;87.70;;;;;;5031083;28;20654;-51
2021/05/14 02:56:01;;;;;;;2.17;1.57;;;13.60;87.70;;;;;;5030798;28;20661;-51
2021/05/14 02:58:28;;;;;;;3.00;1.70;;;13.50;88.40;;;;;;5030407;28;20633;-51
2021/05/14 03:00:55;;;;;;;1.93;1.83;;;13.60;88.50;;;;;;5024709;28;21041;-51
2021/05/14 03:03:22;;;;;;;3.27;2.50;;;13.50;88.70;;;;;;5027330;28;20662;-52
2021/05/14 03:05:49;;;;;;;4.40;2.43;;;13.50;88.80;;;;;;5029115;28;20705;-51
2021/05/14 03:08:17;;;;;;;1.70;1.57;;;13.50;89.00;;;;;;5030784;28;20616;-50
2021/05/14 03:10:44;;;;;;;2.83;2.10;;;13.50;89.00;;;;;;5030744;28;20631;-50
2021/05/14 03:13:12;;;;;;;2.17;1.97;;;13.50;89.20;;;;;;5030231;28;20717;-51
2021/05/14 03:15:39;;;;;;;2.13;1.80;;;13.50;89.40;;;;;;5018527;28;21022;-51
2021/05/14 03:18:06;;;;;;;2.60;2.30;;;13.50;89.40;;;;;;5030762;28;20634;-52
2021/05/14 03:20:34;;;;;;;2.57;2.37;;;13.50;89.30;;;;;;5031018;28;20614;-52
2021/05/14 03:23:01;;;;;;;4.77;2.53;;;13.50;89.10;;;;;;5031187;28;20715;-51
2021/05/14 03:25:27;;;;;;;3.10;2.00;;;13.50;89.00;;;;;;5030769;28;20698;-51
2021/05/14 03:27:54;;;;;;;2.23;2.03;;;13.30;89.30;;;;;;5029411;28;20637;-51
2021/05/14 03:30:21;;;;;;;2.00;1.70;;;13.30;89.80;;;;;;5018280;28;21185;-51
2021/05/14 03:32:48;;;;;;;2.40;1.60;;;13.30;90.00;;;;;;5030304;28;20676;-51
2021/05/14 03:35:14;;;;;;;2.60;2.40;;;13.30;90.00;;;;;;5031668;28;20662;-51
2021/05/14 03:37:42;;;;;;;2.13;1.40;;;13.20;90.20;;;;;;5033722;28;20657;-51
2021/05/14 03:40:19;;;;;;;2.73;2.33;;;13.20;90.20;;;;;;5033974;28;20656;-52
2021/05/14 03:42:46;;;;;;;1.80;1.60;;;13.20;90.30;;;;;;5031614;28;20729;-51
2021/05/14 03:45:13;;;;;;;2.13;1.93;;;13.20;90.40;;;;;;5032105;28;20685;-52
2021/05/14 03:47:40;;;;;;;2.67;2.47;;;13.20;90.50;;;;;;5031837;28;21198;-52
2021/05/14 03:50:09;;;;;;;2.73;1.70;;;13.20;90.80;;;;;;5016113;28;20643;-51
2021/05/14 03:52:36;;;;;;;1.50;1.40;;;13.20;90.30;;;;;;5017200;28;20778;-52
2021/05/14 03:55:04;;;;;;;1.67;1.50;;;13.20;90.40;;;;;;5033648;28;20647;-52
2021/05/14 03:57:31;;;;;;;1.50;1.40;;;13.20;90.40;;;;;;5027170;28;20631;-51
2021/05/14 03:59:57;;;;;;;1.63;1.53;;;13.20;90.50;;;;;;5034356;28;20680;-51
2021/05/14 04:02:24;;;;;;;1.73;1.63;;;13.20;90.60;;;;;;5033824;28;20669;-52
2021/05/14 04:04:52;;;;;;;4.33;2.00;;;13.20;90.60;;;;;;5020011;28;20797;-52
2021/05/14 04:07:20;;;;;;;2.80;2.60;;;13.20;90.60;;;;;;5033869;28;20665;-52
2021/05/14 04:09:52;;;;;;;4.50;1.70;;;13.20;90.70;;;;;;5026339;28;21197;-52
2021/05/14 04:15:01;;;;;;;2.27;1.90;;;13.20;90.70;;;;;;5019031;28;20659;-52
2021/05/14 04:17:27;;;;;;;2.17;2.00;;;13.20;90.60;;;;;;5032677;28;20941;-51
2021/05/14 04:19:55;;;;;;;2.10;1.90;;;13.20;90.60;;;;;;5033113;28;21063;-52
2021/05/14 04:22:22;;;;;;;2.03;1.77;;;13.20;90.60;;;;;;5033620;28;20689;-51
2021/05/14 04:24:48;;;;;;;2.00;1.83;;;13.30;90.70;;;;;;5029947;28;21008;-52
2021/05/14 04:27:15;;;;;;;2.03;1.73;;;13.20;90.70;;;;;;5021736;28;20682;-52
2021/05/14 04:29:43;;;;;;;4.10;2.10;;;13.20;90.70;;;;;;5033517;28;20761;-51
2021/05/14 04:32:10;;;;;;;2.57;2.37;;;13.20;90.60;;;;;;5033206;28;20623;-51
2021/05/14 04:34:36;;;;;;;2.03;1.60;;;13.30;90.50;;;;;;5028761;28;20713;-51
2021/05/14 04:37:03;;;;;;;2.30;1.77;;;13.20;90.60;;;;;;5013927;28;20635;-50
2021/05/14 04:39:30;;;;;;;1.90;1.80;;;13.20;90.70;;;;;;5020815;28;21204;-51
2021/05/14 04:41:57;;;;;;;2.40;2.20;;;13.20;90.70;;;;;;5027761;28;20658;-52
2021/05/14 04:44:24;;;;;;;2.00;1.63;;;13.20;90.70;;;;;;5033084;28;20630;-51
2021/05/14 04:46:52;;;;;;;1.97;1.83;;;13.20;90.70;;;;;;5032503;28;20781;-52
2021/05/14 04:49:19;;;;;;;2.20;2.10;;;13.30;90.50;;;;;;5032449;28;20631;-52
2021/05/14 04:51:46;;;;;;;1.90;1.80;;;13.30;90.70;;;;;;5032797;28;20714;-51
2021/05/14 04:54:13;;;;;;;2.57;2.17;;;13.30;90.50;;;;;;5030906;28;20709;-52
2021/05/14 04:56:39;;;;;;;2.13;1.93;;;13.30;90.60;;;;;;5032728;28;20709;-52
2021/05/14 04:59:06;;;;;;;1.87;1.60;;;13.30;90.50;;;;;;5029239;28;20680;-51
2021/05/14 05:01:33;;;;;;;2.00;1.73;;;13.30;90.50;;;;;;5032691;28;20639;-52
2021/05/14 05:04:01;;;;;;;1.70;1.60;;;13.40;90.60;;;;;;5032267;28;20646;-51
2021/05/14 05:06:28;;;;;;;2.43;1.67;;;13.40;90.60;;;;;;5028655;28;20702;-51
2021/05/14 05:08:54;;;;;;;5.83;1.70;;;13.40;90.40;;;;;;5024967;28;20685;-51
2021/05/14 05:11:21;;;;;;;3.70;2.80;;;13.40;90.40;;;;;;5032374;28;20689;-51
2021/05/14 05:13:48;;;;;;;2.10;1.77;;;13.50;90.50;;;;;;5028859;28;20648;-52
2021/05/14 05:16:15;;;;;;;1.87;1.70;;;13.50;90.40;;;;;;5016206;28;21312;-51
2021/05/14 05:18:41;;;;;;;3.53;1.83;;;13.60;90.40;;;;;;5031448;28;20627;-51
2021/05/14 05:21:09;;;;;;;2.17;1.30;;;13.60;90.50;;;;;;5031617;28;21075;-51
2021/05/14 05:23:36;;;;;;;4.07;2.37;;;13.60;90.30;;;;;;5033807;28;20708;-51
2021/05/14 05:26:02;;;;;;;2.23;2.03;;;13.60;90.30;;;;;;5032449;28;20662;-51
2021/05/14 05:28:32;;;;;;;2.10;1.90;;;13.60;90.40;;;;;;5022896;28;20662;-51
2021/05/14 05:30:59;;;;;;;3.80;2.20;;;13.60;90.40;;;;;;5012500;28;20655;-52
2021/05/14 05:33:25;;;;;;;2.60;2.33;;;13.70;90.50;;;;;;5022385;28;20663;-51
2021/05/14 05:35:52;;;;;;;2.00;1.80;;;13.80;90.20;;;;;;5031424;28;20698;-49
2021/05/14 05:38:21;;;;;;;3.30;2.13;;;13.90;90.30;;;;;;5029667;28;20642;-50
2021/05/14 05:40:47;;;;;;;2.33;2.13;;;14.00;90.30;;;;;;5032052;28;20619;-51
2021/05/14 05:43:14;;;;;;;6.50;2.10;;;14.10;89.80;;;;;;5031261;28;20634;-50
2021/05/14 05:45:41;;;;;;;2.37;1.40;;;14.10;89.10;;;;;;5025773;28;20658;-51
2021/05/14 05:48:09;;;;;;;2.00;1.60;;;14.20;88.80;;;;;;5026368;28;20686;-52
2021/05/14 05:50:36;;;;;;;2.00;1.87;;;14.30;88.50;;;;;;5031783;28;20634;-52
2021/05/14 05:53:03;;;;;;;3.07;1.77;;;14.30;87.50;;;;;;5031329;28;20652;-52
2021/05/14 05:55:30;;;;;;;3.00;1.70;;;14.30;87.80;;;;;;5031051;28;20709;-52
2021/05/14 05:58:05;;;;;;;2.13;1.97;;;14.30;87.70;;;;;;5026424;28;20628;-52
2021/05/14 06:00:31;;;;;;;2.13;1.63;;;14.30;87.40;;;;;;5021634;28;20649;-52
2021/05/14 06:02:58;;;;;;;1.93;1.80;;;14.40;88.10;;;;;;5030993;28;20654;-52
2021/05/14 06:05:25;;;;;;;5.80;1.93;;;14.40;87.60;;;;;;5031114;28;20666;-51
2021/05/14 06:07:52;;;;;;;1.57;1.43;;;14.40;87.30;;;;;;5030549;28;20627;-52
2021/05/14 06:10:19;;;;;;;1.90;1.67;;;14.40;87.30;;;;;;5031273;28;20622;-50
2021/05/14 06:12:46;;;;;;;3.90;2.80;;;14.30;87.10;;;;;;5028686;28;20651;-51
2021/05/14 06:15:13;;;;;;;2.77;2.37;;;14.30;87.90;;;;;;5021004;28;20794;-51
2021/05/14 06:17:42;;;;;;;2.03;1.80;;;14.30;88.40;;;;;;5017818;28;20627;-51
2021/05/14 06:20:10;;;;;;;2.63;2.43;;;14.40;88.20;;;;;;5013856;28;20693;-51
2021/05/14 06:22:37;;;;;;;2.07;1.87;;;14.40;88.40;;;;;;5011136;28;20647;-51
2021/05/14 06:25:05;;;;;;;2.80;2.13;;;14.40;88.20;;;;;;5014403;28;20697;-52
2021/05/14 06:27:33;;;;;;;2.40;2.20;;;14.40;88.30;;;;;;5019447;28;20680;-51
2021/05/14 06:30:01;;;;;;;2.50;2.30;;;14.40;89.30;;;;;;5021252;28;20632;-51
2021/05/14 06:32:28;;;;;;;3.40;2.90;;;14.40;89.60;;;;;;5022735;28;20650;-52
2021/05/14 06:34:55;;;;;;;2.13;1.93;;;14.40;89.50;;;;;;5030430;28;20709;-52
2021/05/14 06:37:22;;;;;;;2.90;2.70;;;14.40;89.00;;;;;;5031370;28;20677;-52
2021/05/14 06:39:49;;;;;;;3.73;2.77;;;14.40;89.20;;;;;;5030111;28;20631;-52
2021/05/14 06:42:16;;;;;;;2.97;2.70;;;14.50;89.60;;;;;;5031238;28;20619;-53
2021/05/14 06:44:43;;;;;;;2.97;2.67;;;14.60;89.70;;;;;;5026164;28;20652;-52
2021/05/14 06:47:10;;;;;;;3.40;2.10;;;14.70;89.00;;;;;;5017764;28;20628;-52
2021/05/14 06:49:37;;;;;;;2.10;2.00;;;14.70;88.00;;;;;;5028932;28;20637;-51
2021/05/14 06:52:04;;;;;;;2.17;1.97;;;14.70;87.60;;;;;;5033270;28;20631;-51
2021/05/14 06:54:31;;;;;;;3.47;2.10;;;14.70;87.30;;;;;;5050985;28;20696;-51
2021/05/14 06:56:58;;;;;;;2.73;2.10;;;14.70;87.20;;;;;;5032841;28;20626;-52
2021/05/14 06:59:25;;;;;;;3.93;1.73;;;14.70;87.40;;;;;;5029903;28;20649;-51
2021/05/14 07:01:52;;;;;;;2.57;2.27;;;14.80;87.10;;;;;;5025060;28;21179;-53
2021/05/14 07:04:19;;;;;;;2.53;2.33;;;14.70;86.80;;;;;;5031071;28;20681;-52
2021/05/14 07:06:46;;;;;;;3.80;2.20;;;14.70;86.30;;;;;;5029131;28;20635;-50
2021/05/14 07:09:13;;;;;;;3.73;2.23;;;14.70;86.40;;;;;;5028870;28;20690;-51
2021/05/14 07:11:40;;;;;;;2.30;2.10;;;14.90;86.90;;;;;;5033075;28;20710;-51
2021/05/14 07:14:07;;;;;;;2.40;2.07;;;15.00;86.60;;;;;;5032736;28;20663;-50
2021/05/14 07:16:33;;;;;;;2.63;2.10;;;15.20;86.10;;;;;;5024923;28;20646;-51
2021/05/14 07:19:00;;;;;;;3.03;2.10;;;15.20;85.60;;;;;;5033748;28;21229;-52
2021/05/14 07:21:28;;;;;;;1.80;1.70;;;15.30;85.70;;;;;;5025756;28;20627;-51
2021/05/14 07:23:55;;;;;;;2.40;2.17;;;15.30;85.20;;;;;;5028105;28;20627;-51
2021/05/14 07:26:21;;;;;;;2.50;2.30;;;15.50;84.60;;;;;;5035541;28;20712;-51
2021/05/14 07:28:48;;;;;;;4.43;2.43;;;15.50;84.00;;;;;;5031440;28;20631;-51
2021/05/14 07:31:15;;;;;;;2.03;1.63;;;15.60;83.60;;;;;;5049552;28;20618;-51
2021/05/14 07:33:44;;;;;;;2.73;2.10;;;15.70;83.70;;;;;;5050443;28;21214;-52
2021/05/14 07:36:10;;;;;;;2.27;1.90;;;15.70;83.00;;;;;;5028781;28;20698;-51
2021/05/14 07:38:38;;;;;;;1.90;1.80;;;15.80;82.90;;;;;;5029450;28;20653;-52
2021/05/14 07:41:05;;;;;;;6.47;2.73;;;15.70;82.90;;;;;;5033850;28;20635;-51
2021/05/14 07:43:32;;;;;;;2.73;2.07;;;15.70;83.20;;;;;;5034097;28;20627;-52
2021/05/14 07:45:58;;;;;;;1.67;1.33;;;15.80;83.40;;;;;;5031001;28;20651;-52
2021/05/14 07:48:26;;;;;;;3.67;2.33;;;15.90;83.20;;;;;;5034126;28;20816;-52
2021/05/14 07:50:53;;;;;;;2.70;2.10;;;16.00;82.30;;;;;;5032759;28;20979;-52
2021/05/14 07:53:20;;;;;;;2.50;2.30;;;16.00;82.60;;;;;;5033297;28;20631;-52
2021/05/14 07:55:48;;;;;;;3.90;2.40;;;16.00;82.30;;;;;;5033757;28;20716;-52
2021/05/14 07:58:15;;;;;;;3.00;2.37;;;16.10;82.00;;;;;;5033305;28;20626;-51
2021/05/14 08:00:43;;;;;;;3.10;2.70;;;16.20;81.50;;;;;;5032193;28;20626;-52
2021/05/14 08:03:12;;;;;;;2.00;1.80;;;16.40;81.80;;;;;;5024800;28;20655;-52
2021/05/14 08:05:39;;;;;;;2.00;1.90;;;16.70;79.80;;;;;;5025058;28;21017;-52
2021/05/14 08:08:08;;;;;;;2.47;2.27;;;16.90;79.40;;;;;;5028703;28;20655;-52
2021/05/14 08:10:35;;;;;;;2.10;1.90;;;17.20;77.40;;;;;;5013699;28;20657;-52
2021/05/14 08:13:03;;;;;;;4.03;2.20;;;17.30;76.50;;;;;;5023823;28;20623;-52
2021/05/14 08:15:30;;;;;;;14.30;2.93;;;17.50;76.00;;;;;;5032874;28;20663;-52
2021/05/14 08:17:57;;;;;;;2.83;2.10;;;17.60;76.10;;;;;;5031781;28;20689;-52
2021/05/14 08:20:25;;;;;;;2.70;2.50;;;17.70;75.00;;;;;;5030313;28;20623;-52
2021/05/14 08:22:51;;;;;;;2.30;2.10;;;17.80;75.20;;;;;;5033516;28;20689;-52
2021/05/14 08:25:18;;;;;;;4.60;2.60;;;18.00;73.60;;;;;;5030667;28;20658;-52
2021/05/14 08:27:45;;;;;;;2.97;2.27;;;18.00;73.60;;;;;;5034477;28;20630;-52
2021/05/14 08:30:15;;;;;;;4.20;2.40;;;18.10;72.50;;;;;;5033228;28;20619;-51
2021/05/14 08:32:44;;;;;;;2.80;2.30;;;18.20;72.00;;;;;;5033118;28;20661;-50
2021/05/14 08:35:11;;;;;;;1.80;1.70;;;18.30;71.80;;;;;;5031051;28;20671;-50
2021/05/14 08:37:39;;;;;;;3.53;2.20;;;18.40;70.40;;;;;;5034367;28;20619;-51
2021/05/14 08:40:08;;;;;;;2.20;2.00;;;18.30;68.80;;;;;;5032737;28;21288;-51
2021/05/14 08:42:38;;;;;;;2.30;1.53;;;18.00;69.20;;;;;;5033281;28;20669;-51
2021/05/14 08:45:07;;;;;;;2.53;2.33;;;17.90;70.60;;;;;;5031013;28;21022;-51
2021/05/14 08:47:35;;;;;;;5.87;2.57;;;17.90;70.60;;;;;;5032219;28;20672;-51
2021/05/14 08:50:02;;;;;;;8.03;2.60;;;17.90;71.20;;;;;;5035622;28;20630;-50
2021/05/14 08:52:30;;;;;;;2.00;1.80;;;17.80;70.90;;;;;;5032551;28;20972;-52
2021/05/14 08:54:58;;;;;;;2.33;2.23;;;17.80;70.70;;;;;;5032609;28;21322;-52
2021/05/14 08:57:25;;;;;;;2.80;2.10;;;17.80;70.80;;;;;;5031619;28;20673;-51
2021/05/14 08:59:52;;;;;;;3.23;2.30;;;17.90;70.70;;;;;;5032801;28;20630;-55
2021/05/14 09:02:19;;;;;;;2.23;1.77;;;18.10;69.70;;;;;;5030642;28;20627;-51
2021/05/14 09:04:48;;;;;;;3.43;1.83;;;18.50;69.00;;;;;;5032756;28;21055;-51
2021/05/14 09:07:16;;;;;;;2.07;1.70;;;18.70;66.90;;;;;;5032688;28;20630;-51
2021/05/14 09:10:04;;;;;;;2.37;2.17;;;18.80;65.80;;;;;;5032356;28;20618;-51
2021/05/14 09:12:34;;;;;;;1.67;1.40;;;18.80;66.00;;;;;;5034815;28;21257;-51
2021/05/14 09:15:01;;;;;;;2.77;1.60;;;18.80;64.40;;;;;;5031525;28;20671;-52
2021/05/14 09:17:28;;;;;;;3.47;1.63;;;18.80;65.00;;;;;;5030979;28;20635;-52
2021/05/14 09:19:55;;;;;;;1.57;1.47;;;18.60;62.30;;;;;;5039027;28;20729;-52
2021/05/14 09:22:23;;;;;;;1.43;1.33;;;18.40;62.20;;;;;;5024315;28;20632;-50
2021/05/14 09:24:56;;;;;;;2.40;1.93;;;18.40;61.70;;;;;;5036305;28;20651;-51
2021/05/14 09:27:30;;;;;;;2.00;1.80;;;18.40;62.20;;;;;;5040570;28;20674;-50
2021/05/14 09:29:58;;;;;;;2.43;1.40;;;18.50;61.50;;;;;;5031762;28;20635;-50
2021/05/14 09:32:26;;;;;;;1.60;0.90;;;18.70;62.10;;;;;;5042702;28;20676;-52
2021/05/14 09:34:55;;;;;;;4.20;1.17;;;18.80;60.80;;;;;;5040604;28;20674;-51
2021/05/14 09:37:24;;;;;;;2.20;1.57;;;19.00;59.60;;;;;;5034991;28;20669;-52
2021/05/14 09:39:51;;;;;;;1.87;1.20;;;19.20;58.50;;;;;;5038790;28;20629;-52
2021/05/14 09:42:31;;;;;;;1.60;1.50;;;19.20;58.50;;;;;;5051481;28;20622;-52
2021/05/14 09:45:14;;;;;;;3.80;1.60;;;19.20;58.80;;;;;;5038590;28;21021;-52
2021/05/14 09:47:41;;;;;;;1.20;1.10;;;19.30;58.60;;;;;;5032803;28;20634;-52
2021/05/14 09:50:29;;;;;;;1.00;0.93;;;19.60;57.00;;;;;;5043719;28;20611;-54
2021/05/14 09:53:05;;;;;;;1.13;1.03;;;19.70;55.80;;;;;;5031886;28;21025;-52
2021/05/14 09:55:34;;;;;;;1.93;1.57;;;19.70;56.00;;;;;;5029048;28;20713;-52
2021/05/14 09:58:03;;;;;;;1.37;1.27;;;19.70;55.70;;;;;;5031552;28;20619;-52
2021/05/14 10:00:30;;;;;;;1.80;1.03;;;20.00;54.70;;;;;;5030600;28;20634;-57
2021/05/14 10:02:58;;;;;;;1.67;1.20;;;20.40;52.20;;;;;;5028613;28;20627;-52
2021/05/14 10:05:25;;;;;;;2.50;1.27;;;20.50;52.40;;;;;;5021225;28;20650;-50
2021/05/14 10:07:52;;;;;;;1.30;0.97;;;20.60;51.60;;;;;;5030447;28;21253;-51
2021/05/14 10:10:19;;;;;;;1.63;1.30;;;20.70;52.00;;;;;;5039767;28;20623;-51
2021/05/14 10:12:48;;;;;;;2.30;1.27;;;20.80;51.40;;;;;;5031352;28;20981;-51
2021/05/14 10:15:15;;;;;;;0.80;0.77;;;20.50;50.90;;;;;;5029377;28;20667;-51
2021/05/14 10:17:46;;;;;;;1.40;0.80;;;20.20;49.10;;;;;;5030839;28;20685;-51
2021/05/14 10:20:14;;;;;;;1.33;0.90;;;20.10;48.80;;;;;;5029405;28;20631;-52
2021/05/14 10:22:41;;;;;;;1.13;0.73;;;20.10;49.80;;;;;;5030956;28;20627;-51
2021/05/14 10:25:10;;;;;;;1.10;1.00;;;20.00;49.40;;;;;;5030868;28;20651;-51
2021/05/14 10:27:40;;;;;;;1.30;1.20;;;19.90;49.70;;;;;;5028820;28;20635;-52
2021/05/14 10:30:09;;;;;;;1.30;0.70;;;19.80;50.60;;;;;;5030549;28;20972;-52
2021/05/14 10:32:51;;;;;;;1.17;0.90;;;19.50;50.80;;;;;;5031005;28;20629;-51
2021/05/14 10:35:23;;;;;;;1.33;1.07;;;19.40;50.90;;;;;;5030468;28;20683;-52
2021/05/14 10:37:50;;;;;;;4.37;1.13;;;19.40;51.50;;;;;;5027862;28;20671;-52
2021/05/14 10:40:51;;;;;;;1.20;1.10;;;19.60;51.90;;;;;;5013330;28;20953;-50
2021/05/14 10:43:19;;;;;;;1.27;0.90;;;19.90;50.80;;;;;;4988946;28;20671;-52
2021/05/14 10:45:47;;;;;;;1.80;1.23;;;20.20;50.50;;;;;;4973496;28;20673;-51
2021/05/14 10:48:18;;;;;;;1.30;1.20;;;20.50;50.60;;;;;;4992991;28;20711;-52
2021/05/14 10:50:46;;;;;;;1.20;0.80;;;20.90;50.00;;;;;;5015802;28;20673;-51
2021/05/14 10:53:30;;;;;;;1.43;1.00;;;21.00;48.40;;;;;;5015588;28;20769;-51
2021/05/14 10:56:23;;;;;;;1.20;1.10;;;21.00;47.70;;;;;;5035225;28;20682;-51
2021/05/14 10:58:50;;;;;;;1.60;1.10;;;21.00;48.00;;;;;;5028176;28;21242;-51
2021/05/14 11:01:27;;;;;;;2.30;1.30;;;20.70;47.90;;;;;;5024881;28;20631;-51
2021/05/14 11:03:54;;;;;;;2.33;1.00;;;20.50;49.10;;;;;;5021937;28;20631;-50
2021/05/14 11:06:21;;;;;;;1.67;0.73;;;20.60;48.70;;;;;;5040573;28;20684;-51
2021/05/14 11:09:01;;;;;;;1.43;0.80;;;20.90;47.40;;;;;;5052446;28;20638;-51
2021/05/14 11:11:28;;;;;;;0.70;0.70;;;20.90;45.40;;;;;;5037644;28;21396;-51
2021/05/14 11:13:56;;;;;;;1.53;0.60;;;20.90;45.80;;;;;;5033013;28;20693;-52
2021/05/14 11:16:38;;;;;;;1.37;0.73;;;20.90;43.40;;;;;;5031602;28;20666;-52
2021/05/14 11:19:16;;;;;;;2.03;1.20;;;20.90;45.30;;;;;;5032360;28;20635;-52
2021/05/14 11:22:12;;;;;;;1.20;1.00;;;20.90;46.00;;;;;;5034306;28;20661;-52
2021/05/14 11:24:44;;;;;;;1.10;0.90;;;20.70;45.50;;;;;;5029326;28;20630;-52
2021/05/14 11:27:13;;;;;;;2.00;0.67;;;20.70;46.60;;;;;;5032997;28;20630;-52
2021/05/14 11:29:44;;;;;;;1.00;0.63;;;20.70;46.90;;;;;;5031023;28;21029;-51
2021/05/14 11:32:33;;;;;;;0.73;0.57;;;21.00;45.50;;;;;;5033995;28;20631;-52
2021/05/14 11:35:02;;;;;;;1.00;0.70;;;20.90;43.20;;;;;;5030795;28;20671;-52
2021/05/14 11:37:34;;;;;;;0.93;0.90;;;20.80;43.60;;;;;;5033665;28;20689;-52
2021/05/14 11:40:10;;;;;;;1.57;0.50;;;20.40;43.80;;;;;;5016500;28;20673;-52
2021/05/14 11:42:47;;;;;;;1.83;0.63;;;20.20;44.30;;;;;;5028173;28;20626;-52
2021/05/14 11:45:15;;;;;;;1.70;0.67;;;20.00;45.80;;;;;;5033787;28;20662;-52
2021/05/14 11:47:53;;;;;;;0.60;0.60;;;20.00;46.30;;;;;;5033179;28;20720;-52
2021/05/14 11:50:22;;;;;;;1.23;1.10;;;20.20;45.80;;;;;;5033894;28;20661;-52
2021/05/14 11:52:49;;;;;;;1.10;0.83;;;20.40;46.30;;;;;;5033378;28;20684;-51
2021/05/14 11:55:17;;;;;;;0.67;0.50;;;20.50;46.20;;;;;;5032255;28;20771;-52
2021/05/14 11:57:47;;;;;;;3.57;1.33;;;20.30;44.70;;;;;;5033267;28;20628;-51
2021/05/14 12:00:15;;;;;;;0.90;0.70;;;20.20;44.50;;;;;;5031452;28;20632;-51
2021/05/14 12:02:43;;;;;;;0.57;0.40;;;20.20;44.60;;;;;;5027006;28;20631;-51
2021/05/14 12:05:11;;;;;;;0.40;0.40;;;20.30;43.60;;;;;;5032020;28;20655;-52
2021/05/14 12:07:39;;;;;;;0.93;0.50;;;20.40;42.10;;;;;;5021977;28;20630;-51
2021/05/14 12:10:08;;;;;;;0.50;0.30;;;20.50;41.90;;;;;;5023369;28;21239;-51
2021/05/14 12:12:37;;;;;;;1.20;0.70;;;20.50;41.30;;;;;;5026248;28;20855;-52
2021/05/14 12:15:26;;;;;;;1.80;1.67;;;20.50;40.50;;;;;;5013482;28;20806;-52
2021/05/14 12:17:58;;;;;;;0.97;0.50;;;20.50;41.00;;;;;;5019786;28;20631;-52
2021/05/14 12:20:30;;;;;;;0.90;0.50;;;20.60;40.80;;;;;;5033075;28;20631;-51
2021/05/14 12:22:59;;;;;;;1.23;0.57;;;20.60;40.80;;;;;;5020219;28;20662;-51
2021/05/14 12:25:26;;;;;;;0.67;0.63;;;20.80;41.00;;;;;;5011933;28;20656;-51
2021/05/14 12:27:53;;;;;;;0.90;0.70;;;21.10;40.50;;;;;;5011496;28;20663;-51
2021/05/14 12:30:20;;;;;;;1.20;0.53;;;21.50;38.50;;;;;;5011919;28;20627;-51
2021/05/14 12:32:58;;;;;;;0.80;0.70;;;21.90;38.70;;;;;;5013099;28;20634;-52
2021/05/14 12:35:25;;;;;;;0.90;0.40;;;22.40;36.50;;;;;;5023574;28;21009;-51
2021/05/14 12:37:56;;;;;;;0.53;0.40;;;22.90;36.40;;;;;;5032511;28;21018;-51
2021/05/14 12:40:36;;;;;;;1.13;0.77;;;23.50;36.10;;;;;;5032836;28;20634;-52
2021/05/14 12:43:10;;;;;;;0.80;0.70;;;23.70;35.60;;;;;;5032946;28;20692;-51
2021/05/14 12:45:38;;;;;;;3.83;0.50;;;24.20;35.40;;;;;;5032749;28;20704;-51
2021/05/14 12:48:07;;;;;;;3.53;0.80;;;24.70;35.10;;;;;;5031962;28;20627;-51
2021/05/14 12:50:34;;;;;;;2.00;1.03;;;24.80;35.10;;;;;;5032834;28;20836;-51
2021/05/14 12:53:01;;;;;;;0.60;0.53;;;24.80;34.50;;;;;;5026597;28;21213;-51
2021/05/14 12:55:28;;;;;;;3.63;1.33;;;24.50;34.90;;;;;;5032254;28;20681;-51
2021/05/14 12:57:56;;;;;;;0.80;0.50;;;24.10;35.50;;;;;;5032717;28;20704;-51